M I D A S
Marine Information and Data Acquisition System
Tripno 754 of the Zeeleeuw from 2004-07-30 06:45:21 to 2004-07-30 12:54:01
Back to CruiseResearch ActivitiesStationsMapUnderway DataData graphs

EquipmentUnitsComment
TimeDGPSUTC
LatitudeDGPSDM.mWGS84
LongitudeDGPSDM.mWGS84
HeadingGyrodeg 
SOGDGPSknotsSpeed over ground
COGDGPSdegCourse over ground
DepthEcho soundermeters200 kHz
Missing or incorrect values are displayed as -999
Navigation data collected by the RV Zeeleeuw from 2004-07-30 06:45:21 to 2004-07-30 12:54:01
Time Latitude Longitude Heading SOG COG Depth
2004-07-30 06:46:23 51°16.476 2°53.154 342.9 13 334 11.7
2004-07-30 06:47:23 51°16.663 2°52.986 339.1 12.9 330 10.9
2004-07-30 06:48:24 51°16.85 2°52.817 337.5 12.5 328 8.8
2004-07-30 06:49:23 51°17.027 2°52.644 339.6 12.9 330 9.7
2004-07-30 06:50:24 51°17.211 2°52.462 339.2 12.8 329 9.5
2004-07-30 06:51:23 51°17.39 2°52.286 339 12.8 329 10
2004-07-30 06:52:24 51°17.573 2°52.102 337.5 12.8 327 10
2004-07-30 06:53:23 51°17.751 2°51.924 338.6 12.8 328 10
2004-07-30 06:54:24 51°17.949 2°51.818 2.4 12.3 355 9.9
2004-07-30 06:55:23 51°18.129 2°51.929 46.1 12 43 10.6
2004-07-30 06:56:23 51°18.227 2°52.209 68.9 12.2 67 10.7
2004-07-30 06:57:23 51°18.298 2°52.515 72.3 12.4 70 10.6
2004-07-30 06:58:23 51°18.369 2°52.825 71.7 12.4 70 10.8
2004-07-30 06:59:23 51°18.438 2°53.135 72.4 12.4 70 10.8
2004-07-30 07:00:24 51°18.509 2°53.451 72.6 12.4 71 10.9
2004-07-30 07:01:23 51°18.578 2°53.755 72 12.4 69 10.8
2004-07-30 07:02:24 51°18.656 2°54.065 71.2 12.3 69 10.8
2004-07-30 07:03:24 51°18.734 2°54.368 71.1 12.4 68 10.8
2004-07-30 07:04:23 51°18.807 2°54.666 72.8 12.3 70 10.8
2004-07-30 07:05:23 51°18.885 2°54.968 71 12.2 68 10.8
2004-07-30 07:06:23 51°18.961 2°55.27 70.1 12.3 67 10.7
2004-07-30 07:07:24 51°19.039 2°55.578 71.8 12.3 69 10.6
2004-07-30 07:08:24 51°19.116 2°55.884 71.2 12.4 68 10.6
2004-07-30 07:09:23 51°19.191 2°56.185 72.2 12.3 69 10.5
2004-07-30 07:10:24 51°19.267 2°56.496 72 12.3 70 10.4
2004-07-30 07:11:24 51°19.332 2°56.781 73.3 8.9 74 10.4
2004-07-30 07:12:23 51°19.276 2°56.895 157.4 5.4 170 10.4
2004-07-30 07:13:23 51°19.197 2°56.848 229.7 5.1 224 10.3
2004-07-30 07:14:25 51°19.174 2°56.725 301 4.4 277 10.3
2004-07-30 07:15:23 51°19.179 2°56.618 276.8 3.8 253 10.5
2004-07-30 07:16:25 51°19.157 2°56.582 239.8 1.5 203 10.5
2004-07-30 07:17:23 51°19.134 2°56.567 213.7 1.6 201 10.5
2004-07-30 07:18:24 51°19.108 2°56.552 205.4 1.6 201 10.4
2004-07-30 07:19:23 51°19.078 2°56.528 220.1 3.1 214 10.5
2004-07-30 07:20:23 51°19.044 2°56.45 272.9 3.8 254 10.4
2004-07-30 07:21:25 51°19.053 2°56.362 330.6 3.1 302 10.6
2004-07-30 07:22:24 51°19.092 2°56.312 352.8 2.6 330 10.7
2004-07-30 07:23:23 51°19.115 2°56.268 325.4 2.1 289 10.7
2004-07-30 07:24:23 51°19.114 2°56.22 303.2 1.3 241 10.8
2004-07-30 07:25:25 51°19.093 2°56.219 290.3 1.6 155 -999
2004-07-30 07:26:23 51°19.074 2°56.209 273.6 1.4 215 10.8
2004-07-30 07:27:23 51°19.053 2°56.188 259.9 1.5 213 10.8
2004-07-30 07:28:24 51°19.031 2°56.166 245.5 1.6 211 10.8
2004-07-30 07:29:25 51°19.008 2°56.143 236.1 1.6 212 10.7
2004-07-30 07:30:23 51°18.986 2°56.12 231.5 1.7 211 10.9
2004-07-30 07:31:23 51°18.961 2°56.094 232.3 1.7 214 10.8
2004-07-30 07:32:24 51°18.937 2°56.066 237.6 1.7 217 10.7
2004-07-30 07:33:24 51°18.915 2°56.037 242 1.7 220 10.7
2004-07-30 07:34:25 51°18.892 2°56.008 243.3 1.8 217 10.7
2004-07-30 07:35:23 51°18.87 2°55.979 243.7 1.8 219 10.7
2004-07-30 07:36:23 51°18.847 2°55.949 245.6 1.8 219 10.7
2004-07-30 07:37:23 51°18.825 2°55.919 247.6 1.7 224 10.7
2004-07-30 07:38:23 51°18.804 2°55.888 248.7 1.8 221 10.7
2004-07-30 07:39:23 51°18.783 2°55.862 249.3 1.4 215 10.6
2004-07-30 07:40:25 51°18.763 2°55.839 247.4 1.5 215 10.6
2004-07-30 07:41:22 51°18.743 2°55.816 245.8 1.6 216 10.6
2004-07-30 07:42:24 51°18.722 2°55.79 245.5 1.6 222 10.8
2004-07-30 07:43:24 51°18.699 2°55.725 271 4 256 10.7
2004-07-30 07:44:23 51°18.739 2°55.606 339.5 6.1 331 11
2004-07-30 07:45:24 51°18.846 2°55.676 46.2 9.9 45 10.6
2004-07-30 07:46:23 51°18.981 2°55.896 48.9 12.3 47 10.8
2004-07-30 07:47:24 51°19.113 2°56.155 54.3 12.4 53 10.8
2004-07-30 07:48:24 51°19.238 2°56.418 54.4 12.4 53 10.9
2004-07-30 07:49:25 51°19.32 2°56.728 70.5 12.5 71 10.7
2004-07-30 07:50:23 51°19.395 2°57.024 68.1 12.4 68 10.6
2004-07-30 07:51:24 51°19.474 2°57.333 67.9 12.4 68 10.5
2004-07-30 07:52:24 51°19.551 2°57.638 67.5 12.3 68 10.3
2004-07-30 07:53:23 51°19.628 2°57.932 68.8 12.2 69 10.1
2004-07-30 07:54:23 51°19.703 2°58.233 67.6 12.2 67 10.2
2004-07-30 07:55:24 51°19.782 2°58.539 68.2 12.3 67 10.1
2004-07-30 07:56:25 51°19.861 2°58.848 69.3 12.5 69 9.9
2004-07-30 07:57:23 51°19.939 2°59.142 67.7 12.5 67 9.9
2004-07-30 07:58:24 51°20.016 2°59.454 68.9 12.4 68 9.9
2004-07-30 07:59:24 51°20.092 2°59.76 70.3 12.4 70 9.7
2004-07-30 08:00:23 51°20.167 3°0.062 69.6 12.5 69 9.7
2004-07-30 08:01:25 51°20.244 3°0.383 67.7 12.6 67 9.8
2004-07-30 08:02:23 51°20.321 3°0.683 69.7 12.7 70 9.7
2004-07-30 08:03:24 51°20.401 3°1.001 69.2 12.7 68 9.7
2004-07-30 08:04:25 51°20.479 3°1.32 71.5 12.7 72 9.7
2004-07-30 08:05:23 51°20.544 3°1.629 70.7 12.7 70 9.6
2004-07-30 08:06:23 51°20.614 3°1.949 70.7 12.8 70 9.8
2004-07-30 08:07:23 51°20.686 3°2.269 69.7 12.9 69 9.8
2004-07-30 08:08:23 51°20.759 3°2.592 71.1 12.8 69 9.9
2004-07-30 08:09:23 51°20.831 3°2.915 71.7 12.9 70 9.9
2004-07-30 08:10:23 51°20.91 3°3.234 70.9 12.9 69 9.9
2004-07-30 08:11:23 51°20.988 3°3.554 71.6 13 70 10.1
2004-07-30 08:12:23 51°21.07 3°3.872 67.5 12.9 66 10.2
2004-07-30 08:13:23 51°21.147 3°4.177 71.4 9.8 75 10.4
2004-07-30 08:14:23 51°21.097 3°4.314 158.6 5.5 164 10.4
2004-07-30 08:15:24 51°21.024 3°4.26 240.7 4.8 235 10.2
2004-07-30 08:16:23 51°21.024 3°4.154 299.7 3.3 286 10.2
2004-07-30 08:17:23 51°21.039 3°4.065 286 3.6 272 10.2
2004-07-30 08:18:23 51°21.029 3°4.013 250.4 1.3 228 10.3
2004-07-30 08:19:23 51°21.011 3°3.991 234.5 1.4 214 10.3
2004-07-30 08:20:23 51°20.991 3°3.971 236.3 1.4 211 10.3
2004-07-30 08:21:24 51°20.973 3°3.952 240.7 1.2 223 10.2
2004-07-30 08:22:25 51°20.956 3°3.933 244.6 1.2 215 10.1
2004-07-30 08:23:23 51°20.941 3°3.917 246.8 1.1 212 10.2
2004-07-30 08:24:23 51°20.929 3°3.913 242.4 0.7 184 10.1
2004-07-30 08:25:23 51°20.917 3°3.912 233.1 0.8 188 10.2
2004-07-30 08:26:25 51°20.903 3°3.908 224.7 0.8 188 10.2
2004-07-30 08:27:22 51°20.881 3°3.886 235.7 2.6 224 10
2004-07-30 08:28:23 51°20.85 3°3.817 249.5 3.6 238 10
2004-07-30 08:29:25 51°20.821 3°3.719 265.6 4.1 254 10.1
2004-07-30 08:30:23 51°20.83 3°3.613 305.5 4.2 294 10.1
2004-07-30 08:31:23 51°20.873 3°3.5 312.1 6.7 304 10.3
2004-07-30 08:32:25 51°20.923 3°3.358 298.2 4.8 289 10.5
2004-07-30 08:33:23 51°20.96 3°3.271 328.9 3.3 320 10.7
2004-07-30 08:34:23 51°20.981 3°3.245 327.1 0.2 179 10.8
2004-07-30 08:35:23 51°20.974 3°3.248 322.9 0.1 224 10.7
2004-07-30 08:36:24 51°20.974 3°3.237 304.1 0.7 275 10.7
2004-07-30 08:37:23 51°20.971 3°3.216 277.3 0.8 244 10.8
2004-07-30 08:38:23 51°20.962 3°3.199 265 0.9 220 10.9
2004-07-30 08:39:23 51°20.95 3°3.185 260.3 0.9 216 10.7
2004-07-30 08:40:23 51°20.938 3°3.172 260 0.9 210 10.8
2004-07-30 08:41:24 51°20.926 3°3.161 262.7 0.8 211 10.7
2004-07-30 08:42:23 51°20.915 3°3.151 265.6 0.8 208 10.8
2004-07-30 08:43:25 51°20.904 3°3.141 267.7 0.7 207 10.9
2004-07-30 08:44:25 51°20.895 3°3.132 270 0.5 213 10.8
2004-07-30 08:45:25 51°20.886 3°3.125 272.7 0.6 204 10.8
2004-07-30 08:46:23 51°20.89 3°3.078 304.2 5.2 305 10.8
2004-07-30 08:47:23 51°20.994 3°3.072 36.5 8 39 11.1
2004-07-30 08:48:25 51°21.082 3°3.325 65.3 12.7 64 11.1
2004-07-30 08:49:23 51°21.158 3°3.643 73.3 13.4 70 11.2
2004-07-30 08:50:24 51°21.23 3°3.99 73.2 13.6 71 11.1
2004-07-30 08:51:23 51°21.3 3°4.326 74.2 13.6 73 11.3
2004-07-30 08:52:24 51°21.371 3°4.676 73.5 13.6 72 11.4
2004-07-30 08:53:23 51°21.444 3°5.011 72.5 13.6 70 11.4
2004-07-30 08:54:23 51°21.515 3°5.354 74 13.5 73 11.5
2004-07-30 08:55:25 51°21.593 3°5.703 72.1 13.5 70 11.4
2004-07-30 08:56:23 51°21.668 3°6.029 70.9 13.5 69 11.7
2004-07-30 08:57:23 51°21.748 3°6.366 70.5 13.6 70 12
2004-07-30 08:58:23 51°21.824 3°6.705 73.5 13.6 72 12.1
2004-07-30 08:59:25 51°21.876 3°7.069 79.8 13.6 78 12.4
2004-07-30 09:00:24 51°21.93 3°7.415 76.9 13.6 75 12.3
2004-07-30 09:01:23 51°21.981 3°7.764 78.4 13.6 79 12.4
2004-07-30 09:02:23 51°22.031 3°8.12 78.3 13.8 77 12.5
2004-07-30 09:03:23 51°22.082 3°8.481 78.3 13.9 77 12.8
2004-07-30 09:04:23 51°22.132 3°8.841 78.9 13.9 78 13.2
2004-07-30 09:05:23 51°22.182 3°9.202 79.1 13.9 78 13.5
2004-07-30 09:06:23 51°22.229 3°9.567 80.1 14.1 79 14
2004-07-30 09:07:24 51°22.273 3°9.944 81 14.2 79 14.6
2004-07-30 09:08:24 51°22.283 3°10.321 97.5 14.4 96 15.6
2004-07-30 09:09:23 51°22.267 3°10.694 92.9 14.3 89 19.5
2004-07-30 09:10:24 51°22.298 3°11.079 82 14.4 79 17.1
2004-07-30 09:11:24 51°22.353 3°11.456 76.7 14.6 75 16.6
2004-07-30 09:12:24 51°22.426 3°11.826 71.7 14.5 70 16.3
2004-07-30 09:13:23 51°22.509 3°12.181 70.9 14.4 69 15.2
2004-07-30 09:14:24 51°22.598 3°12.544 69.5 14.4 69 14.6
2004-07-30 09:15:23 51°22.666 3°12.906 77.4 14.5 76 13.7
2004-07-30 09:16:24 51°22.723 3°13.284 77.7 14.5 77 13
2004-07-30 09:17:25 51°22.779 3°13.665 78.5 14.4 77 12
2004-07-30 09:18:25 51°22.832 3°14.042 80 14.7 79 11.5
2004-07-30 09:19:22 51°22.88 3°14.404 78.5 14.6 77 11
2004-07-30 09:20:24 51°22.934 3°14.797 79 14.7 78 10.3
2004-07-30 09:21:23 51°22.986 3°15.172 77.6 14.7 76 9.8
2004-07-30 09:22:25 51°23.043 3°15.558 78.3 13.2 78 9.5
2004-07-30 09:23:24 51°22.986 3°15.739 164.7 5.8 152 9.9
2004-07-30 09:24:25 51°22.926 3°15.725 242.7 2.7 231 9.9
2004-07-30 09:25:24 51°22.942 3°15.657 299.9 3.1 310 9.9
2004-07-30 09:26:23 51°22.973 3°15.605 290.1 1.2 316 9.9
2004-07-30 09:27:23 51°22.975 3°15.621 250.5 1 94 9.9
2004-07-30 09:28:25 51°22.97 3°15.645 238.4 0.8 168 9.9
2004-07-30 09:29:25 51°22.967 3°15.613 287 1.9 302 9.8
2004-07-30 09:30:22 51°23.011 3°15.606 356 3.9 19 10.1
2004-07-30 09:31:23 51°23.062 3°15.702 66.7 5.3 71 10
2004-07-30 09:32:25 51°23.07 3°15.857 92.1 5.5 87 10
2004-07-30 09:33:25 51°23.074 3°15.969 97.3 2.6 86 10.1
2004-07-30 09:34:25 51°23.076 3°16.017 100.4 1.8 86 -999
2004-07-30 09:35:23 51°23.079 3°16.066 101.4 2 88 10.1
2004-07-30 09:36:23 51°23.081 3°16.122 101.9 2.2 88 10.1
2004-07-30 09:37:25 51°23.083 3°16.185 101.1 2.3 88 10.1
2004-07-30 09:38:24 51°23.084 3°16.247 98.4 2.5 88 10.1
2004-07-30 09:39:25 51°23.087 3°16.315 93.7 2.6 86 10.1
2004-07-30 09:40:25 51°23.09 3°16.384 90.4 2.6 85 10.2
2004-07-30 09:41:23 51°23.094 3°16.452 86.7 2.7 84 10.2
2004-07-30 09:42:25 51°23.1 3°16.527 84 2.8 82 10.1
2004-07-30 09:43:23 51°23.107 3°16.598 79.9 3.1 82 10.2
2004-07-30 09:44:25 51°23.163 3°16.715 20.8 6.9 27 10.2
2004-07-30 09:45:24 51°23.32 3°16.702 342.6 12.1 346 10.2
2004-07-30 09:46:25 51°23.529 3°16.618 344.2 13 346 11.2
2004-07-30 09:47:25 51°23.74 3°16.539 344.4 13.1 347 12.4
2004-07-30 09:48:23 51°23.946 3°16.47 345 13.1 348 13.7
2004-07-30 09:49:24 51°24.154 3°16.37 338.7 12.8 343 14.9
2004-07-30 09:50:23 51°24.353 3°16.273 341.1 12.7 344 17.1
2004-07-30 09:51:24 51°24.555 3°16.168 331.2 12.1 333 19.6
2004-07-30 09:52:23 51°24.716 3°15.991 317.9 11.8 319 19.5
2004-07-30 09:53:25 51°24.851 3°15.756 307.1 11.5 306 18
2004-07-30 09:54:24 51°24.921 3°15.485 285 11.3 281 17.1
2004-07-30 09:55:25 51°24.941 3°15.179 276.7 11.3 271 17.3
2004-07-30 09:56:24 51°24.923 3°14.883 266.3 11.4 260 17.6
2004-07-30 09:57:25 51°24.891 3°14.578 266 11.4 261 17.9
2004-07-30 09:58:25 51°24.862 3°14.278 266.6 11.4 261 17.8
2004-07-30 09:59:25 51°24.836 3°13.978 267.1 11.4 262 18
2004-07-30 10:00:24 51°24.812 3°13.682 267.4 11.4 263 17.9
2004-07-30 10:01:25 51°24.786 3°13.378 265.5 11.4 260 17.2
2004-07-30 10:02:24 51°24.753 3°13.086 264.8 11.3 260 17.2
2004-07-30 10:03:24 51°24.725 3°12.788 267.1 11.3 264 16.7
2004-07-30 10:04:25 51°24.705 3°12.485 267.1 11.3 264 16.3
2004-07-30 10:05:25 51°24.684 3°12.182 266.9 11.4 263 16
2004-07-30 10:06:24 51°24.664 3°11.885 267.8 11.5 265 15.6
2004-07-30 10:07:25 51°24.643 3°11.575 268.1 11.5 264 15.1
2004-07-30 10:08:25 51°24.621 3°11.27 266.8 11.5 263 14.9
2004-07-30 10:09:24 51°24.602 3°10.97 266.9 11.5 263 15
2004-07-30 10:10:25 51°24.579 3°10.659 267 11.5 262 14.7
2004-07-30 10:11:25 51°24.561 3°10.355 268.5 11.5 265 14
2004-07-30 10:12:25 51°24.546 3°10.051 269.2 11.5 266 13.6
2004-07-30 10:13:25 51°24.533 3°9.746 269.9 11.5 267 13.5
2004-07-30 10:14:23 51°24.519 3°9.451 268.6 11.5 265 13.7
2004-07-30 10:15:25 51°24.505 3°9.137 269.6 11.4 266 13.7
2004-07-30 10:16:25 51°24.491 3°8.833 268.7 11.5 266 13.4
2004-07-30 10:17:25 51°24.496 3°8.529 274.7 11.5 272 13.3
2004-07-30 10:18:25 51°24.513 3°8.225 280 11.5 278 13.2
2004-07-30 10:19:25 51°24.54 3°7.921 280.3 11.5 278 13.4
2004-07-30 10:20:25 51°24.566 3°7.616 279.8 11.6 279 13.4
2004-07-30 10:21:23 51°24.601 3°7.322 280.8 11.6 279 13.4
2004-07-30 10:22:25 51°24.636 3°7.007 281.9 11.7 281 13.7
2004-07-30 10:23:25 51°24.672 3°6.701 282 11.7 281 13.9
2004-07-30 10:24:24 51°24.711 3°6.399 283.3 11.8 284 14.1
2004-07-30 10:25:22 51°24.759 3°6.103 284.3 11.9 284 14.7
2004-07-30 10:26:25 51°24.811 3°5.781 284 11.9 284 14.7
2004-07-30 10:27:23 51°24.861 3°5.484 284.5 11.9 286 15.1
2004-07-30 10:28:25 51°24.913 3°5.168 283.8 11.9 285 15.5
2004-07-30 10:29:25 51°24.959 3°4.859 281.9 11.9 283 15.9
2004-07-30 10:30:25 51°25.005 3°4.55 282.8 11.9 283 16.1
2004-07-30 10:31:25 51°25.048 3°4.239 281.1 12 282 16.4
2004-07-30 10:32:25 51°25.094 3°3.928 282.4 12 283 16.6
2004-07-30 10:33:23 51°25.127 3°3.624 277.7 12 278 16.7
2004-07-30 10:34:25 51°25.151 3°3.296 276.1 12 277 16.5
2004-07-30 10:35:25 51°25.159 3°2.978 271.2 12 271 16.4
2004-07-30 10:36:25 51°25.162 3°2.657 270.9 12.1 271 16.4
2004-07-30 10:37:25 51°25.166 3°2.334 272.6 12.1 271 16.6
2004-07-30 10:38:25 51°25.171 3°2.011 272.9 12.1 272 16.4
2004-07-30 10:39:24 51°25.174 3°1.693 271.5 12.2 270 16.1
2004-07-30 10:40:24 51°25.178 3°1.371 272.9 12.1 271 16.1
2004-07-30 10:41:25 51°25.185 3°1.043 273.2 12.2 273 16.1
2004-07-30 10:42:25 51°25.191 3°0.718 272.1 12.2 271 16.8
2004-07-30 10:43:25 51°25.198 3°0.392 273.2 12.2 273 17.7
2004-07-30 10:44:25 51°25.203 3°0.066 269.3 12.2 269 18.6
2004-07-30 10:45:24 51°25.199 2°59.747 267 12.1 267 19.5
2004-07-30 10:46:24 51°25.197 2°59.426 270.7 12.1 272 20.5
2004-07-30 10:47:25 51°25.208 2°59.098 274.6 12.2 276 21.6
2004-07-30 10:48:23 51°25.224 2°58.788 272.2 12.1 274 22.7
2004-07-30 10:49:23 51°25.239 2°58.468 272.7 12 275 23.4
2004-07-30 10:50:24 51°25.254 2°58.143 273.5 12.1 277 24.5
2004-07-30 10:51:22 51°25.271 2°57.836 271.7 11.9 274 25.5
2004-07-30 10:52:25 51°25.284 2°57.503 270.8 11.9 272 27
2004-07-30 10:53:25 51°25.295 2°57.181 272.5 12.1 273 27.4
2004-07-30 10:54:25 51°25.31 2°56.857 274.1 12.2 276 27.3
2004-07-30 10:55:25 51°25.329 2°56.533 275.4 12.3 276 26
2004-07-30 10:56:24 51°25.351 2°56.212 276.2 12.3 277 22.5
2004-07-30 10:57:25 51°25.374 2°55.881 274.6 12.3 276 17.4
2004-07-30 10:58:25 51°25.398 2°55.555 275.8 12.4 276 19.1
2004-07-30 10:59:25 51°25.425 2°55.227 277.2 12.5 279 20.8
2004-07-30 11:00:25 51°25.462 2°54.898 280.8 12.6 282 20
2004-07-30 11:01:23 51°25.513 2°54.584 283.4 12.6 285 22.7
2004-07-30 11:02:25 51°25.569 2°54.248 283.2 12.6 285 23.6
2004-07-30 11:03:25 51°25.623 2°53.924 282.7 12.6 285 24.3
2004-07-30 11:04:25 51°25.677 2°53.6 283 12.6 284 28.5
2004-07-30 11:05:25 51°25.732 2°53.276 283.2 12.5 285 28.5
2004-07-30 11:06:25 51°25.759 2°52.953 272.4 12.2 274 28.2
2004-07-30 11:07:25 51°25.774 2°52.63 272.6 12.2 274 29.6
2004-07-30 11:08:25 51°25.788 2°52.308 272.5 12.1 274 28.6
2004-07-30 11:09:24 51°25.805 2°51.992 272.6 12.1 274 29.8
2004-07-30 11:10:25 51°25.82 2°51.664 272.9 12.2 274 31
2004-07-30 11:11:23 51°25.836 2°51.354 272.9 12 274 25.8
2004-07-30 11:12:24 51°25.849 2°51.03 270.8 12 272 26.2
2004-07-30 11:13:25 51°25.856 2°50.707 270.8 11.9 272 25.8
2004-07-30 11:14:25 51°25.865 2°50.388 271.1 11.9 273 25.6
2004-07-30 11:15:25 51°25.875 2°50.07 271.6 11.9 273 25.3
2004-07-30 11:16:23 51°25.871 2°49.766 265.7 11.8 267 25.5
2004-07-30 11:17:25 51°25.863 2°49.441 265.3 11.7 265 25.6
2004-07-30 11:18:25 51°25.825 2°49.137 256.9 11.6 258 26.5
2004-07-30 11:19:25 51°25.773 2°48.842 250.4 11.5 250 26.6
2004-07-30 11:20:24 51°25.698 2°48.565 246 11.4 245 26.4
2004-07-30 11:21:25 51°25.615 2°48.284 242.8 11.4 242 26.2
2004-07-30 11:22:25 51°25.522 2°48.018 241 11.5 241 26.7
2004-07-30 11:23:25 51°25.419 2°47.759 237.7 11.6 237 28.5
2004-07-30 11:24:25 51°25.316 2°47.499 238.3 11.6 237 28.6
2004-07-30 11:25:25 51°25.213 2°47.24 238.7 11.5 237 27
2004-07-30 11:26:25 51°25.11 2°46.98 238.9 11.5 238 27.2
2004-07-30 11:27:23 51°25.011 2°46.729 239.4 11.5 238 27.3
2004-07-30 11:28:25 51°24.898 2°46.467 236.3 11.5 234 27
2004-07-30 11:29:25 51°24.785 2°46.219 236.6 11.6 234 27.5
2004-07-30 11:30:25 51°24.669 2°45.97 236.7 11.7 234 27.2
2004-07-30 11:31:23 51°24.545 2°45.741 231.4 11.8 227 27.7
2004-07-30 11:32:25 51°24.406 2°45.508 227.9 11.7 223 27.7
2004-07-30 11:33:25 51°24.229 2°45.4 192.1 12.1 182 28.6
2004-07-30 11:34:25 51°24.025 2°45.404 187.9 12.4 178 29.3
2004-07-30 11:35:25 51°23.818 2°45.405 189.9 12.4 182 29.4
2004-07-30 11:36:25 51°23.61 2°45.4 188.4 12.5 180 29.9
2004-07-30 11:37:25 51°23.401 2°45.397 189 12.5 181 29.6
2004-07-30 11:38:24 51°23.196 2°45.389 189.4 12.6 181 29.8
2004-07-30 11:39:25 51°22.984 2°45.386 189.2 12.5 181 29.4
2004-07-30 11:40:25 51°22.776 2°45.384 188.9 12.4 181 24.4
2004-07-30 11:41:25 51°22.568 2°45.376 189.7 12.4 181 26.5
2004-07-30 11:42:25 51°22.36 2°45.37 188.6 12.5 180 25.7
2004-07-30 11:43:25 51°22.152 2°45.361 189.4 12.5 180 24.8
2004-07-30 11:44:25 51°21.945 2°45.357 188.6 12.5 181 24.6
2004-07-30 11:45:25 51°21.737 2°45.347 189.3 12.5 182 24.9
2004-07-30 11:46:25 51°21.528 2°45.34 190.1 12.6 182 26.5
2004-07-30 11:47:25 51°21.319 2°45.339 190 12.5 180 28.3
2004-07-30 11:48:25 51°21.113 2°45.335 190.1 12.2 181 28.6
2004-07-30 11:49:25 51°20.908 2°45.336 189.6 12.3 180 27.9
2004-07-30 11:50:25 51°20.703 2°45.335 190.8 12.3 181 26.7
2004-07-30 11:51:25 51°20.498 2°45.333 189.2 12.4 180 27.3
2004-07-30 11:52:25 51°20.292 2°45.335 190 12.4 180 25.3
2004-07-30 11:53:23 51°20.095 2°45.334 188.5 12.1 180 24.7
2004-07-30 11:54:25 51°19.885 2°45.333 189.7 12.2 181 22.3
2004-07-30 11:55:25 51°19.681 2°45.336 189.2 12.2 179 17.3
2004-07-30 11:56:25 51°19.475 2°45.335 190.1 12.3 181 14.2
2004-07-30 11:57:25 51°19.268 2°45.329 188.7 12.5 180 14.8
2004-07-30 11:58:25 51°19.058 2°45.315 190.6 12.7 182 17.1
2004-07-30 11:59:25 51°18.847 2°45.308 188.5 12.7 181 18.9
2004-07-30 12:00:25 51°18.636 2°45.293 189.4 12.7 183 21.7
2004-07-30 12:01:25 51°18.426 2°45.276 189.8 12.6 183 21.8
2004-07-30 12:02:25 51°18.216 2°45.265 189.2 12.7 182 22.2
2004-07-30 12:03:23 51°18.012 2°45.258 188.4 12.7 181 21.2
2004-07-30 12:04:22 51°17.805 2°45.25 188.7 12.7 181 19.6
2004-07-30 12:05:23 51°17.592 2°45.241 188.6 12.6 180 19.8
2004-07-30 12:06:25 51°17.376 2°45.228 190.5 12.5 183 17.6
2004-07-30 12:07:23 51°17.176 2°45.209 189.5 12.3 183 15.7
2004-07-30 12:08:25 51°16.962 2°45.19 190.7 12.5 186 15.5
2004-07-30 12:09:25 51°16.755 2°45.164 189.2 12.5 183 14.3
2004-07-30 12:10:25 51°16.549 2°45.197 172.7 12.7 168 14.8
2004-07-30 12:11:25 51°16.342 2°45.258 172.7 12.7 165 13.3
2004-07-30 12:12:25 51°16.151 2°45.405 154 13 146 13
2004-07-30 12:13:25 51°16.01 2°45.679 132.6 13.7 124 12.9
2004-07-30 12:14:25 51°15.905 2°46.01 123.1 14.1 115 16.7
2004-07-30 12:15:25 51°15.809 2°46.356 117.7 14.4 109 18.8
2004-07-30 12:16:25 51°15.731 2°46.717 115.8 14.4 108 19.1
2004-07-30 12:17:25 51°15.655 2°47.079 116.2 14.4 109 17.4
2004-07-30 12:18:25 51°15.574 2°47.431 117.5 14 110 15.5
2004-07-30 12:19:25 51°15.495 2°47.779 116.3 13.9 110 13.4
2004-07-30 12:20:25 51°15.411 2°48.123 116.7 13.9 111 12.4
2004-07-30 12:21:25 51°15.336 2°48.474 112 14 106 13.8
2004-07-30 12:22:25 51°15.273 2°48.836 112.1 14.2 106 15.4
2004-07-30 12:23:25 51°15.213 2°49.198 109.4 14 103 15.3
2004-07-30 12:24:25 51°15.156 2°49.555 109.8 13.9 105 15.2
2004-07-30 12:25:25 51°15.102 2°49.919 108.4 14.1 103 15.1
2004-07-30 12:26:25 51°15.049 2°50.282 110.5 14 105 14.9
2004-07-30 12:27:25 51°14.996 2°50.645 109.2 14 104 14.6
2004-07-30 12:28:25 51°14.944 2°51.01 107.4 14.1 101 14.2
2004-07-30 12:29:25 51°14.896 2°51.373 107.4 13.9 102 13.6
2004-07-30 12:30:25 51°14.851 2°51.735 104.6 14 100 13
2004-07-30 12:31:25 51°14.81 2°52.101 105.3 13.9 101 12.4
2004-07-30 12:32:25 51°14.766 2°52.465 106.6 14.1 102 12
2004-07-30 12:33:25 51°14.726 2°52.835 104.9 14.1 100 11.7
2004-07-30 12:34:25 51°14.686 2°53.2 104.9 13.9 99 11.3
2004-07-30 12:35:25 51°14.664 2°53.452 103.1 7.2 96 11.5
2004-07-30 12:36:24 51°14.657 2°53.599 100.3 4.7 91 11.5
2004-07-30 12:37:25 51°14.665 2°53.708 87.3 3.7 80 12.4
2004-07-30 12:38:25 51°14.68 2°53.792 78.8 3.1 72 12.8
2004-07-30 12:39:25 51°14.686 2°53.927 110.4 8.8 104 13.4
2004-07-30 12:40:25 51°14.608 2°54.223 119.5 13 114 13.4
2004-07-30 12:41:25 51°14.515 2°54.538 119.8 13.2 115 13
2004-07-30 12:42:25 51°14.425 2°54.853 121.2 12.5 117 12.8
2004-07-30 12:43:25 51°14.325 2°55.131 124.9 11.4 123 13.3
2004-07-30 12:44:25 51°14.207 2°55.343 141.7 9.7 141 13.6
2004-07-30 12:45:25 51°14.084 2°55.451 158.2 7.8 156 13
2004-07-30 12:46:25 51°13.967 2°55.533 158.2 7.7 157 13.4
2004-07-30 12:47:25 51°13.851 2°55.618 156.6 7.5 154 11.9
2004-07-30 12:48:25 51°13.752 2°55.719 140.2 6.5 137 10.9
2004-07-30 12:49:25 51°13.691 2°55.84 127 5.5 125 12.5
2004-07-30 12:50:25 51°13.647 2°55.948 124.3 4.4 122 11.8
2004-07-30 12:51:25 51°13.619 2°56.032 119.7 2.9 117 12.7
2004-07-30 12:52:25 51°13.6 2°56.091 120.4 1.8 117 9.9
2004-07-30 12:53:25 51°13.597 2°56.096 127.5 0.2 90 9.8